»·PEaware :: N234CL KTUS-KFMN

N234CL :: KTUS-KFMN

FLIGHT INFORMATION

Flight Status: Arrived
Operator: Privately registered:
United States
More flights under this callsign
Pilot: Christian L. (6360)
Aircraft: BEECH AIRCRAFT SUPER KING AIR COMMUTER
(BE20)
More flights by this aircraft type
Origin: KTUS Tucson Intl
United States
Destination: KFMN Four Corners Regl
United States
More flights between these airports :: More routes between these airports
Route: +BURRO4 HOTTT PXR J244 ZUN J161 RSK
File this flight plan on PilotEdge
Remarks:
Altitude:
(Current/Filed)
25,000ft
Speed:
(Current/Filed)
298kts
Departed: 14-Sep-18 09:01 AM
Arrived: 14-Sep-18 10:36 AM
Distance/Time
Traveled:
308nm/1:35
Distance/Time
To Go:
Arrived

Flight Plot

Page will automatically refresh every two minutes.

Flight plan parsing failed; only flown route is shown


Map Options




Map Legend


Flown Route
Filed Route
Departure Airport
Arrival Airport
Navaid (VOR, NDB)
Fix

Horizontal Profiles

Position Reports

Time Latitude Longitude Heading Altitude Ground
Speed
14-Sep-18 08:39 32.122406 -110.940586 39 2647ft 0kts
14-Sep-18 08:40 32.122406 -110.940586 39 2647ft 0kts
14-Sep-18 08:41 32.122406 -110.940586 39 2647ft 0kts
14-Sep-18 08:42 32.122406 -110.940586 39 2647ft 0kts
14-Sep-18 08:43 32.122406 -110.940586 39 2647ft 0kts
14-Sep-18 08:44 32.122406 -110.940586 39 2647ft 0kts
14-Sep-18 08:45 32.122406 -110.940586 39 2647ft 0kts
14-Sep-18 08:46 32.122406 -110.940586 39 2647ft 0kts
14-Sep-18 08:47 32.122406 -110.940586 39 2647ft 0kts
14-Sep-18 08:48 32.122406 -110.940586 39 2647ft 0kts
14-Sep-18 08:49 32.122406 -110.940586 39 2647ft 0kts
14-Sep-18 08:50 32.122406 -110.940586 39 2647ft 0kts
14-Sep-18 08:51 32.122406 -110.940585 39 2647ft 0kts
14-Sep-18 08:52 32.122335 -110.940799 250 2647ft 2kts
14-Sep-18 08:53 32.121349 -110.943945 315 2647ft 17kts
14-Sep-18 08:54 32.123720 -110.947165 232 2647ft 0kts
14-Sep-18 08:55 32.123720 -110.947165 232 2647ft 0kts
14-Sep-18 08:56 32.123720 -110.947165 232 2647ft 0kts
14-Sep-18 08:57 32.123720 -110.947165 232 2647ft 0kts
14-Sep-18 08:58 32.123720 -110.947165 232 2647ft 0kts
14-Sep-18 08:59 32.123720 -110.947165 232 2647ft 0kts
14-Sep-18 09:00 32.123720 -110.947165 232 2647ft 0kts
14-Sep-18 09:01 32.123720 -110.947165 232 2647ft 0kts
14-Sep-18 09:02 32.123648 -110.947324 256 2647ft 8kts
14-Sep-18 09:03 32.114755 -110.937836 135 2892ft 124kts
14-Sep-18 09:04 32.078978 -110.900409 133 3625ft 221kts
14-Sep-18 09:05 32.030896 -110.857507 182 4784ft 213kts
14-Sep-18 09:06 31.987083 -110.899330 232 6588ft 208kts
14-Sep-18 09:07 31.971557 -110.958217 306 8644ft 200kts
14-Sep-18 09:08 31.997214 -111.015944 287 10441ft 208kts
14-Sep-18 09:09 32.021337 -111.078138 294 12274ft 209kts
14-Sep-18 09:10 32.050221 -111.138567 297 14245ft 213kts
14-Sep-18 09:11 32.097668 -111.176935 357 16199ft 228kts
14-Sep-18 09:12 32.160250 -111.165517 13 18296ft 228kts
14-Sep-18 09:13 32.222518 -111.144524 15 20303ft 235kts
14-Sep-18 09:14 32.285920 -111.121584 16 22180ft 242kts
14-Sep-18 09:15 32.352793 -111.096792 16 23537ft 258kts
14-Sep-18 09:16 32.420469 -111.070890 16 25048ft 266kts
14-Sep-18 09:17 32.495920 -111.041591 13 25052ft 294kts
14-Sep-18 09:18 32.569558 -111.072169 319 25053ft 294kts
14-Sep-18 09:19 32.611956 -111.116083 317 25049ft 296kts
14-Sep-18 09:20 32.625770 -111.130330 318 25047ft 296kts
14-Sep-18 09:21 32.625922 -111.130485 318 25047ft 296kts
14-Sep-18 09:22 32.638362 -111.143157 318 25050ft 297kts
14-Sep-18 09:23 32.674214 -111.180589 318 25048ft 281kts
14-Sep-18 09:24 32.730224 -111.185168 33 25051ft 283kts
14-Sep-18 09:25 32.773375 -111.123588 53 25061ft 286kts
14-Sep-18 09:26 32.797104 -111.088296 46 25051ft 286kts
14-Sep-18 09:27 32.808082 -111.073960 45 25027ft 287kts
14-Sep-18 09:28 32.834237 -111.044010 40 25026ft 286kts
14-Sep-18 09:29 32.852631 -111.025357 38 25037ft 286kts
14-Sep-18 09:30 32.884784 -110.994951 36 25046ft 285kts
14-Sep-18 09:31 32.948270 -110.938453 35 25050ft 285kts
14-Sep-18 09:32 33.012572 -110.882711 34 25050ft 286kts
14-Sep-18 09:33 33.077954 -110.826343 34 25051ft 296kts
14-Sep-18 09:34 33.146076 -110.767622 34 25051ft 305kts
14-Sep-18 09:35 33.214799 -110.708286 34 25050ft 306kts
14-Sep-18 09:36 33.283818 -110.648534 34 25050ft 306kts
14-Sep-18 09:37 33.352810 -110.588744 34 25050ft 306kts
14-Sep-18 09:38 33.421911 -110.528718 34 25050ft 306kts
14-Sep-18 09:39 33.490863 -110.468712 34 25050ft 306kts
14-Sep-18 09:40 33.559922 -110.408511 35 25048ft 306kts
14-Sep-18 09:41 33.628726 -110.348372 35 25050ft 306kts
14-Sep-18 09:42 33.697847 -110.287885 35 25050ft 306kts
14-Sep-18 09:43 33.766665 -110.227465 34 25186ft 304kts
14-Sep-18 09:44 33.835098 -110.167349 34 25279ft 306kts
14-Sep-18 09:45 33.904240 -110.106451 34 25301ft 308kts
14-Sep-18 09:46 33.973466 -110.045341 34 25324ft 308kts
14-Sep-18 09:47 34.042741 -109.984081 34 25339ft 309kts
14-Sep-18 09:48 34.111898 -109.922764 34 25348ft 309kts
14-Sep-18 09:49 34.181410 -109.861057 35 25352ft 309kts
14-Sep-18 09:50 34.250634 -109.799409 35 25350ft 309kts
14-Sep-18 09:51 34.319819 -109.737740 35 25343ft 309kts
14-Sep-18 09:52 34.389090 -109.675800 35 25333ft 310kts
14-Sep-18 09:53 34.458504 -109.613662 35 25325ft 310kts
14-Sep-18 09:54 34.528115 -109.551169 35 25321ft 311kts
14-Sep-18 09:55 34.597563 -109.488727 35 25321ft 310kts
14-Sep-18 09:56 34.666720 -109.426391 35 25321ft 310kts
14-Sep-18 09:57 34.736220 -109.363646 35 25316ft 310kts
14-Sep-18 09:58 34.805340 -109.300988 35 25309ft 310kts
14-Sep-18 09:59 34.874528 -109.237934 35 25304ft 310kts
14-Sep-18 10:00 34.944125 -109.174503 35 25304ft 312kts
14-Sep-18 10:01 35.017665 -109.120397 23 25304ft 309kts
14-Sep-18 10:02 35.096029 -109.077652 24 25300ft 308kts
14-Sep-18 10:03 35.173978 -109.033844 25 25296ft 309kts
14-Sep-18 10:04 35.251689 -108.989032 23 25291ft 307kts
14-Sep-18 10:05 35.329309 -108.943983 24 25291ft 310kts
14-Sep-18 10:06 35.407556 -108.898369 24 25290ft 311kts
14-Sep-18 10:07 35.485599 -108.852727 24 25290ft 311kts
14-Sep-18 10:08 35.563968 -108.806722 24 25290ft 311kts
14-Sep-18 10:09 35.642144 -108.760790 24 25290ft 311kts
14-Sep-18 10:10 35.721280 -108.714219 24 24805ft 321kts
14-Sep-18 10:11 35.800362 -108.667434 24 24272ft 299kts
14-Sep-18 10:12 35.872499 -108.624670 24 22877ft 283kts
14-Sep-18 10:13 35.942861 -108.582949 25 21181ft 279kts
14-Sep-18 10:14 36.012714 -108.541377 25 19502ft 278kts
14-Sep-18 10:15 36.079714 -108.501545 24 19285ft 260kts
14-Sep-18 10:16 36.146210 -108.455856 36 19008ft 289kts
14-Sep-18 10:17 36.211268 -108.391093 39 17528ft 304kts
14-Sep-18 10:18 36.276733 -108.324534 39 16030ft 304kts
14-Sep-18 10:19 36.341956 -108.257924 39 14530ft 303kts
14-Sep-18 10:20 36.406402 -108.191826 39 13027ft 295kts
14-Sep-18 10:21 36.469163 -108.127189 39 11527ft 291kts
14-Sep-18 10:22 36.529008 -108.065757 39 11003ft 267kts
14-Sep-18 10:23 36.584715 -108.004117 57 11005ft 269kts
14-Sep-18 10:24 36.615936 -107.919628 68 11002ft 268kts
14-Sep-18 10:25 36.644719 -107.831243 69 10299ft 284kts
14-Sep-18 10:26 36.673546 -107.741902 65 9999ft 270kts
14-Sep-18 10:27 36.726076 -107.724017 309 9552ft 197kts
14-Sep-18 10:28 36.746467 -107.777809 289 9183ft 144kts
14-Sep-18 10:29 36.756713 -107.825103 272 9206ft 148kts
14-Sep-18 10:30 36.753180 -107.875881 257 9203ft 147kts
14-Sep-18 10:31 36.746759 -107.926182 263 9202ft 147kts
14-Sep-18 10:32 36.746589 -107.977559 269 9198ft 148kts
14-Sep-18 10:33 36.746551 -108.028664 266 8738ft 117kts
14-Sep-18 10:34 36.742413 -108.074321 278 7030ft 137kts
14-Sep-18 10:35 36.742933 -108.122958 264 6855ft 140kts
14-Sep-18 10:36 36.742746 -108.170496 266 6149ft 139kts
14-Sep-18 10:37 36.741662 -108.217586 267 5546ft 113kts
14-Sep-18 10:38 36.741067 -108.238711 233 5510ft 18kts

Navigation Log

Ident Type
Flight plan parsing failed, navigation log unavailable